Time;durP1;ratioP1;P1;durP2;ratioP2;P2;SDS_P1;SDS_P2;PMS_P1;PMS_P2;Temp;Humidity;BMP_temperature;BMP_pressure;BME280_temperature;BME280_humidity;BME280_pressure;Samples;Min_cycle;Max_cycle;Signal;HPM_P1;HPM_P2
2023/04/06 00:01:41;;;;;;;8.60;6.43;;;6.10;86.30;;;;;;5043020;28;20171;-43
2023/04/06 00:04:07;;;;;;;7.65;6.18;;;6.10;86.40;;;;;;5042816;28;20155;-43
2023/04/06 00:06:33;;;;;;;9.88;6.80;;;6.10;87.10;;;;;;5043982;28;20021;-43
2023/04/06 00:08:59;;;;;;;7.80;5.85;;;6.00;86.50;;;;;;5042241;28;20032;-41
2023/04/06 00:11:25;;;;;;;7.80;5.95;;;6.00;86.60;;;;;;5043611;28;20020;-43
2023/04/06 00:13:53;;;;;;;6.30;5.32;;;6.10;86.80;;;;;;5043343;28;20091;-43
2023/04/06 00:16:20;;;;;;;8.20;5.88;;;6.00;86.90;;;;;;5042816;28;20032;-43
2023/04/06 00:18:45;;;;;;;13.15;5.50;;;6.00;87.00;;;;;;5042936;28;20031;-43
2023/04/06 00:21:15;;;;;;;6.55;5.28;;;6.00;87.10;;;;;;5043070;28;20029;-44
2023/04/06 00:23:41;;;;;;;9.10;6.28;;;6.00;87.20;;;;;;5042812;28;20025;-42
2023/04/06 00:26:08;;;;;;;7.40;5.88;;;5.90;87.20;;;;;;5043027;28;20035;-43
2023/04/06 00:28:34;;;;;;;6.93;5.60;;;5.90;87.30;;;;;;5043153;28;20036;-44
2023/04/06 00:30:59;;;;;;;8.30;5.82;;;5.90;87.50;;;;;;5041948;28;20197;-43
2023/04/06 00:33:25;;;;;;;7.18;5.70;;;5.90;87.60;;;;;;5040800;28;20045;-43
2023/04/06 00:35:51;;;;;;;9.50;6.50;;;5.80;87.70;;;;;;5042546;28;20021;-43
2023/04/06 00:38:16;;;;;;;8.23;5.95;;;5.80;87.80;;;;;;5042262;28;20555;-42
2023/04/06 00:40:46;;;;;;;6.78;5.25;;;5.80;87.90;;;;;;5042979;28;20025;-43
2023/04/06 00:43:12;;;;;;;7.85;6.40;;;5.80;88.10;;;;;;5042367;28;20029;-42
2023/04/06 00:45:41;;;;;;;8.88;5.95;;;5.70;88.20;;;;;;5042116;28;20024;-42
2023/04/06 00:48:08;;;;;;;10.80;6.78;;;5.70;88.40;;;;;;5041990;28;20802;-43
2023/04/06 00:50:34;;;;;;;9.07;6.55;;;5.70;88.50;;;;;;5042579;28;20021;-43
2023/04/06 00:53:00;;;;;;;9.20;6.50;;;5.60;88.70;;;;;;5042341;28;20114;-43
2023/04/06 00:55:27;;;;;;;8.00;6.35;;;5.60;89.10;;;;;;5041597;28;20067;-42
2023/04/06 00:57:53;;;;;;;7.80;5.88;;;5.50;89.40;;;;;;5042096;28;20033;-43
2023/04/06 01:00:19;;;;;;;9.25;6.72;;;5.50;89.50;;;;;;5041600;28;20146;-43
2023/04/06 01:02:46;;;;;;;10.48;6.60;;;5.50;90.00;;;;;;5042229;28;20120;-43
2023/04/06 01:05:11;;;;;;;8.40;6.35;;;5.50;89.60;;;;;;5041160;28;20090;-43
2023/04/06 01:07:37;;;;;;;8.25;6.25;;;5.50;89.60;;;;;;5041857;28;20045;-43
2023/04/06 01:10:03;;;;;;;9.88;6.50;;;5.50;89.70;;;;;;5041680;28;20040;-43
2023/04/06 01:12:29;;;;;;;8.63;6.25;;;5.50;89.80;;;;;;5041238;28;20734;-42
2023/04/06 01:14:55;;;;;;;7.85;6.18;;;5.40;89.80;;;;;;5041300;28;20044;-42
2023/04/06 01:17:20;;;;;;;9.50;7.05;;;5.40;89.90;;;;;;5041296;28;20021;-43
2023/04/06 01:19:49;;;;;;;7.60;5.55;;;5.40;90.00;;;;;;5041616;28;20039;-42
2023/04/06 01:22:17;;;;;;;8.20;6.45;;;5.40;90.00;;;;;;5041098;28;20112;-42
2023/04/06 01:24:43;;;;;;;8.48;6.60;;;5.40;90.10;;;;;;5041249;28;20136;-42
2023/04/06 01:27:09;;;;;;;7.70;6.38;;;5.40;90.10;;;;;;5040355;28;20091;-44
2023/04/06 01:29:35;;;;;;;8.70;6.35;;;5.30;90.20;;;;;;5041661;28;20025;-42
2023/04/06 01:32:03;;;;;;;9.05;6.80;;;5.30;90.20;;;;;;5040736;28;20064;-42
2023/04/06 01:34:29;;;;;;;11.27;7.65;;;5.30;90.30;;;;;;5041094;28;20068;-42
2023/04/06 01:36:55;;;;;;;8.48;6.13;;;5.30;90.30;;;;;;5041393;28;20120;-42
2023/04/06 01:39:20;;;;;;;7.57;6.22;;;5.30;90.40;;;;;;5040819;28;20104;-42
2023/04/06 01:41:49;;;;;;;8.57;6.50;;;5.30;90.50;;;;;;5040917;28;20036;-42
2023/04/06 01:44:18;;;;;;;9.88;6.85;;;5.20;90.50;;;;;;5040354;28;20029;-42
2023/04/06 01:46:44;;;;;;;9.65;7.18;;;5.20;90.60;;;;;;5040143;28;20155;-44
2023/04/06 01:49:10;;;;;;;8.05;6.55;;;5.20;90.70;;;;;;5040659;28;20024;-42
2023/04/06 01:51:35;;;;;;;7.75;6.78;;;5.10;90.80;;;;;;5041372;28;20028;-42
2023/04/06 01:54:21;;;;;;;8.70;6.85;;;5.10;90.90;;;;;;5040489;28;20087;-42
2023/04/06 01:56:47;;;;;;;8.70;6.63;;;5.10;91.20;;;;;;5037001;28;20124;-43
2023/04/06 01:59:12;;;;;;;7.90;6.50;;;5.00;91.20;;;;;;5041442;28;20111;-43
2023/04/06 02:01:38;;;;;;;8.98;6.70;;;5.00;91.30;;;;;;5040514;28;20041;-43
2023/04/06 02:04:03;;;;;;;9.65;6.20;;;5.00;91.40;;;;;;5041043;28;20162;-43
2023/04/06 02:06:30;;;;;;;9.80;7.10;;;5.00;91.50;;;;;;5041208;28;20021;-42
2023/04/06 02:08:55;;;;;;;9.38;6.90;;;4.90;91.60;;;;;;5040300;28;20039;-43
2023/04/06 02:11:21;;;;;;;10.38;6.45;;;4.90;91.70;;;;;;5040405;28;20017;-43
2023/04/06 02:13:52;;;;;;;8.27;6.72;;;4.90;91.70;;;;;;5040666;28;20037;-42
2023/04/06 02:16:17;;;;;;;9.43;6.47;;;4.90;91.80;;;;;;5039797;28;20580;-43
2023/04/06 02:18:43;;;;;;;8.18;6.40;;;4.90;91.80;;;;;;5041036;28;20567;-42
2023/04/06 02:21:09;;;;;;;10.15;6.65;;;4.90;91.80;;;;;;5040181;28;20020;-43
2023/04/06 02:23:34;;;;;;;8.43;6.35;;;5.00;91.80;;;;;;5040425;28;20029;-43
2023/04/06 02:26:00;;;;;;;10.68;7.00;;;4.90;91.80;;;;;;5041035;28;20025;-43
2023/04/06 02:28:25;;;;;;;9.43;6.80;;;5.00;91.80;;;;;;5040043;28;20033;-42
2023/04/06 02:30:51;;;;;;;8.80;6.57;;;5.00;91.90;;;;;;5040303;28;20116;-43
2023/04/06 02:33:16;;;;;;;8.93;6.85;;;5.00;91.90;;;;;;5040005;28;20033;-43
2023/04/06 02:35:44;;;;;;;10.57;7.30;;;5.00;91.90;;;;;;5040768;28;20377;-43
2023/04/06 02:38:09;;;;;;;10.80;7.00;;;5.00;92.00;;;;;;5039239;28;20120;-42
2023/04/06 02:40:35;;;;;;;8.90;6.57;;;5.00;92.00;;;;;;5040992;28;20025;-42
2023/04/06 02:43:00;;;;;;;9.55;6.82;;;5.00;92.10;;;;;;5039257;28;20797;-43
2023/04/06 02:45:26;;;;;;;10.93;7.63;;;5.00;92.10;;;;;;5039781;28;20051;-43
2023/04/06 02:47:51;;;;;;;12.23;7.28;;;5.00;92.10;;;;;;5040163;28;20492;-43
2023/04/06 02:50:20;;;;;;;9.30;7.35;;;5.10;92.20;;;;;;5039455;28;20075;-42
2023/04/06 02:52:46;;;;;;;10.48;7.60;;;5.10;92.20;;;;;;5041193;28;20350;-43
2023/04/06 02:55:14;;;;;;;9.05;7.10;;;5.10;92.10;;;;;;5040683;28;20040;-42
2023/04/06 02:57:40;;;;;;;9.90;6.75;;;5.10;92.10;;;;;;5039737;28;20068;-42
2023/04/06 03:00:08;;;;;;;9.82;7.45;;;5.20;92.10;;;;;;5040743;28;20389;-42
2023/04/06 03:02:33;;;;;;;9.93;7.22;;;5.20;92.10;;;;;;5040998;28;20599;-44
2023/04/06 03:04:59;;;;;;;9.30;7.15;;;5.20;92.10;;;;;;5039991;28;20036;-41
2023/04/06 03:07:37;;;;;;;10.32;7.35;;;5.20;92.10;;;;;;5040358;28;20036;-43
2023/04/06 03:10:02;;;;;;;10.43;8.23;;;5.20;92.10;;;;;;5039669;28;20032;-43
2023/04/06 03:12:28;;;;;;;9.75;7.13;;;5.20;92.10;;;;;;5039806;28;20048;-43
2023/04/06 03:14:54;;;;;;;10.82;7.45;;;5.30;92.10;;;;;;5040233;28;20353;-42
2023/04/06 03:17:19;;;;;;;11.10;8.02;;;5.30;92.10;;;;;;5040350;28;20021;-42
2023/04/06 03:19:45;;;;;;;9.95;7.20;;;5.30;92.10;;;;;;5038752;28;20490;-42
2023/04/06 03:22:10;;;;;;;12.18;7.53;;;5.30;92.10;;;;;;5040110;28;20028;-43
2023/04/06 03:24:36;;;;;;;10.43;7.50;;;5.30;92.10;;;;;;5039701;28;20025;-41
2023/04/06 03:27:01;;;;;;;11.82;8.05;;;5.30;92.10;;;;;;5039691;28;20028;-43
2023/04/06 03:29:27;;;;;;;11.02;8.10;;;5.40;92.20;;;;;;5039812;28;20044;-44
2023/04/06 03:31:52;;;;;;;11.05;8.38;;;5.40;92.20;;;;;;5040149;28;20036;-42
2023/04/06 03:34:21;;;;;;;11.38;7.78;;;5.40;92.20;;;;;;5038560;28;20067;-43
2023/04/06 03:36:46;;;;;;;11.25;7.95;;;5.40;92.20;;;;;;5040126;28;20059;-44
2023/04/06 03:39:12;;;;;;;11.18;7.82;;;5.40;92.30;;;;;;5039715;28;20095;-43
2023/04/06 03:41:37;;;;;;;9.85;7.32;;;5.40;92.30;;;;;;5039270;28;20032;-43
2023/04/06 03:44:03;;;;;;;11.13;7.75;;;5.40;92.30;;;;;;5040101;28;20082;-41
2023/04/06 03:46:34;;;;;;;8.75;7.05;;;5.40;92.40;;;;;;5038269;28;20056;-43
2023/04/06 03:49:00;;;;;;;9.98;7.22;;;5.30;92.30;;;;;;5040232;28;20049;-42
2023/04/06 03:51:26;;;;;;;10.68;7.82;;;5.30;92.40;;;;;;5039055;28;20044;-43
2023/04/06 03:53:51;;;;;;;10.90;8.20;;;5.30;92.40;;;;;;5038500;28;20786;-42
2023/04/06 03:56:17;;;;;;;10.75;8.40;;;5.30;92.40;;;;;;5039305;28;20055;-43
2023/04/06 03:58:44;;;;;;;10.70;7.88;;;5.30;92.40;;;;;;5039747;28;20141;-43
2023/04/06 04:01:09;;;;;;;11.63;7.82;;;5.30;92.50;;;;;;5038314;28;20480;-43
2023/04/06 04:03:35;;;;;;;12.27;7.63;;;5.30;92.50;;;;;;5039456;28;20032;-43
2023/04/06 04:06:01;;;;;;;9.77;7.50;;;5.40;92.50;;;;;;5040034;28;20037;-42
2023/04/06 04:08:29;;;;;;;9.20;7.30;;;5.40;92.50;;;;;;5039862;28;20182;-42
2023/04/06 04:10:54;;;;;;;10.38;7.78;;;5.30;92.50;;;;;;5042657;28;20021;-42
2023/04/06 04:13:23;;;;;;;9.63;7.50;;;5.40;92.50;;;;;;5043074;28;20369;-42
2023/04/06 04:15:48;;;;;;;13.10;8.68;;;5.40;92.50;;;;;;5042734;28;20032;-42
2023/04/06 04:18:14;;;;;;;10.32;8.05;;;5.40;92.50;;;;;;5043481;28;20098;-43
2023/04/06 04:20:40;;;;;;;9.27;7.38;;;5.40;92.50;;;;;;5043180;28;20126;-43
2023/04/06 04:23:05;;;;;;;11.52;7.93;;;5.40;92.50;;;;;;5041880;28;20036;-43
2023/04/06 04:25:46;;;;;;;12.43;8.57;;;5.40;92.60;;;;;;5042888;28;20044;-42
2023/04/06 04:28:21;;;;;;;12.25;8.35;;;5.40;92.60;;;;;;5042800;28;20025;-42
2023/04/06 04:30:46;;;;;;;9.57;7.45;;;5.40;92.60;;;;;;5042669;28;20024;-42
2023/04/06 04:33:12;;;;;;;11.57;7.45;;;5.40;92.60;;;;;;5042270;28;20021;-45
2023/04/06 04:35:37;;;;;;;9.52;7.07;;;5.40;92.60;;;;;;5041533;28;20031;-44
2023/04/06 04:38:03;;;;;;;11.43;7.45;;;5.40;92.60;;;;;;5043419;28;20040;-43
2023/04/06 04:40:29;;;;;;;9.27;7.03;;;5.40;92.60;;;;;;5043525;28;20029;-42
2023/04/06 04:42:54;;;;;;;10.98;7.25;;;5.40;92.70;;;;;;5042652;28;20032;-42
2023/04/06 04:45:20;;;;;;;11.32;7.47;;;5.40;92.70;;;;;;5044353;28;20108;-43
2023/04/06 04:47:46;;;;;;;10.02;7.72;;;5.40;92.80;;;;;;5042783;28;20090;-42
2023/04/06 04:50:14;;;;;;;9.93;7.72;;;5.40;92.80;;;;;;5042521;28;20060;-43
2023/04/06 04:52:40;;;;;;;16.55;8.48;;;5.40;92.80;;;;;;5042632;28;20021;-42
2023/04/06 04:55:08;;;;;;;12.80;8.73;;;5.40;92.90;;;;;;5042333;28;20095;-43
2023/04/06 04:57:34;;;;;;;13.85;8.80;;;5.40;93.00;;;;;;5042377;28;20385;-43
2023/04/06 05:00:05;;;;;;;11.27;8.55;;;5.40;93.00;;;;;;5042238;28;20457;-44
2023/04/06 05:02:31;;;;;;;10.98;7.90;;;5.40;93.10;;;;;;5042985;28;20103;-43
2023/04/06 05:04:56;;;;;;;12.30;8.52;;;5.40;93.10;;;;;;5041664;28;20551;-41
2023/04/06 05:07:22;;;;;;;11.45;8.30;;;5.40;93.10;;;;;;5042696;28;20025;-43
2023/04/06 05:09:48;;;;;;;13.13;7.95;;;5.40;93.20;;;;;;5042384;28;20819;-44
2023/04/06 05:12:13;;;;;;;12.68;8.45;;;5.30;93.20;;;;;;5041567;28;20029;-42
2023/04/06 05:14:39;;;;;;;11.65;7.88;;;5.40;93.30;;;;;;5042590;28;20509;-42
2023/04/06 05:17:05;;;;;;;11.93;8.50;;;5.40;93.30;;;;;;5042230;28;20132;-43
2023/04/06 05:19:31;;;;;;;12.50;8.93;;;5.40;93.30;;;;;;5041349;28;20029;-43
2023/04/06 05:21:56;;;;;;;13.63;9.25;;;5.40;93.40;;;;;;5041518;28;20048;-44
2023/04/06 05:24:22;;;;;;;10.10;7.90;;;5.40;93.40;;;;;;5041351;28;20028;-43
2023/04/06 05:26:48;;;;;;;10.98;7.93;;;5.40;93.40;;;;;;5041483;28;20079;-43
2023/04/06 05:29:14;;;;;;;9.52;7.05;;;5.40;93.40;;;;;;5041393;28;20032;-33
2023/04/06 05:31:40;;;;;;;10.85;8.07;;;5.40;93.40;;;;;;5041471;28;20024;-32
2023/04/06 05:34:06;;;;;;;11.52;8.07;;;5.40;93.40;;;;;;5040740;28;20836;-32
2023/04/06 05:36:32;;;;;;;10.95;8.07;;;5.40;93.40;;;;;;5042432;28;20519;-32
2023/04/06 05:38:58;;;;;;;13.40;8.43;;;5.50;93.40;;;;;;5041622;28;20108;-32
2023/04/06 05:41:24;;;;;;;11.68;8.57;;;5.50;93.40;;;;;;5041791;28;20100;-32
2023/04/06 05:43:50;;;;;;;12.90;9.00;;;5.50;93.50;;;;;;5041040;28;20020;-32
2023/04/06 05:46:15;;;;;;;10.95;8.00;;;5.50;93.50;;;;;;5039978;28;20055;-32
2023/04/06 05:48:41;;;;;;;12.80;8.50;;;5.60;93.50;;;;;;5037597;28;20048;-32
2023/04/06 05:51:06;;;;;;;11.23;8.07;;;5.60;93.60;;;;;;5039135;28;20403;-32
2023/04/06 05:53:32;;;;;;;12.75;9.27;;;5.60;93.50;;;;;;5038898;28;20049;-33
2023/04/06 05:56:04;;;;;;;11.48;8.93;;;5.70;93.50;;;;;;5040881;28;20021;-34
2023/04/06 05:58:30;;;;;;;11.10;7.72;;;5.70;93.50;;;;;;5041050;28;20835;-43
2023/04/06 06:01:00;;;;;;;11.10;8.02;;;5.70;93.50;;;;;;5039184;28;20052;-42
2023/04/06 06:03:26;;;;;;;11.63;8.38;;;5.80;93.50;;;;;;5040553;28;20029;-43
2023/04/06 06:06:02;;;;;;;11.93;8.52;;;5.80;93.50;;;;;;5040179;28;20762;-43
2023/04/06 06:08:28;;;;;;;11.85;8.95;;;5.80;93.60;;;;;;5039811;28;20021;-43
2023/04/06 06:10:54;;;;;;;11.70;8.52;;;5.80;93.60;;;;;;5040030;28;20037;-44
2023/04/06 06:13:20;;;;;;;13.13;8.48;;;5.90;93.60;;;;;;5040219;28;20045;-42
2023/04/06 06:15:46;;;;;;;14.95;10.00;;;5.90;93.60;;;;;;5039241;28;20079;-42
2023/04/06 06:18:12;;;;;;;15.10;10.02;;;6.00;93.60;;;;;;5039938;28;20028;-42
2023/04/06 06:20:37;;;;;;;12.40;8.98;;;6.00;93.60;;;;;;5040256;28;20017;-43
2023/04/06 06:23:03;;;;;;;12.95;9.13;;;6.10;93.60;;;;;;5039298;28;20025;-43
2023/04/06 06:25:30;;;;;;;12.05;8.48;;;6.20;93.60;;;;;;5039889;28;20029;-42
2023/04/06 06:27:56;;;;;;;10.82;8.10;;;6.20;93.50;;;;;;5040203;28;20540;-43
2023/04/06 06:30:22;;;;;;;10.65;7.97;;;6.40;93.50;;;;;;5039658;28;20032;-42
2023/04/06 06:32:48;;;;;;;11.57;8.85;;;6.40;93.50;;;;;;5039351;28;20538;-43
2023/04/06 06:35:13;;;;;;;11.85;8.38;;;6.50;93.40;;;;;;5039553;28;20037;-43
2023/04/06 06:37:39;;;;;;;13.20;8.43;;;6.70;93.40;;;;;;5039963;28;20052;-43
2023/04/06 06:40:08;;;;;;;11.40;8.27;;;6.70;93.30;;;;;;5040142;28;20170;-43
2023/04/06 06:42:34;;;;;;;12.57;8.85;;;6.90;93.30;;;;;;5040346;28;20037;-43
2023/04/06 06:44:59;;;;;;;14.02;9.40;;;6.90;93.20;;;;;;5040309;28;20392;-42
2023/04/06 06:47:26;;;;;;;14.43;8.50;;;7.00;93.20;;;;;;5039687;28;20133;-42
2023/04/06 06:49:51;;;;;;;11.30;9.00;;;7.10;93.20;;;;;;5038808;28;20036;-42
2023/04/06 06:52:17;;;;;;;14.05;9.32;;;7.20;93.10;;;;;;5040368;28;20036;-44
2023/04/06 06:54:43;;;;;;;12.43;9.00;;;7.30;93.10;;;;;;5040580;28;20039;-44
2023/04/06 06:57:08;;;;;;;13.15;9.68;;;7.30;93.00;;;;;;5039666;28;20044;-43
2023/04/06 06:59:34;;;;;;;13.65;9.13;;;7.40;93.00;;;;;;5039843;28;20040;-43
2023/04/06 07:02:00;;;;;;;11.30;8.32;;;7.40;92.90;;;;;;5039050;28;20040;-42
2023/04/06 07:04:25;;;;;;;13.63;9.38;;;7.50;92.90;;;;;;5039386;28;20066;-44
2023/04/06 07:06:52;;;;;;;14.27;9.68;;;7.60;92.90;;;;;;5040589;28;20408;-43
2023/04/06 07:09:18;;;;;;;12.80;8.75;;;7.70;92.90;;;;;;5040434;28;20029;-43
2023/04/06 07:11:43;;;;;;;12.32;8.45;;;7.70;92.80;;;;;;5039570;28;20962;-43
2023/04/06 07:14:16;;;;;;;12.63;8.63;;;7.70;92.80;;;;;;5039610;28;20033;-43
2023/04/06 07:16:41;;;;;;;13.15;8.98;;;7.80;92.80;;;;;;5039819;28;20469;-43
2023/04/06 07:19:09;;;;;;;16.38;9.90;;;7.90;92.80;;;;;;5039115;28;20036;-43
2023/04/06 07:21:35;;;;;;;13.43;9.25;;;7.90;92.80;;;;;;5040386;28;20104;-44
2023/04/06 07:24:01;;;;;;;15.18;9.95;;;7.90;92.70;;;;;;5040060;28;20511;-44
2023/04/06 07:26:27;;;;;;;14.80;10.02;;;8.00;92.70;;;;;;5039437;28;20043;-42
2023/04/06 07:28:54;;;;;;;12.52;9.55;;;8.10;92.60;;;;;;5039775;28;20368;-43
2023/04/06 07:31:20;;;;;;;14.05;9.77;;;8.10;92.60;;;;;;5040470;28;20021;-44
2023/04/06 07:33:49;;;;;;;14.02;10.32;;;8.20;92.60;;;;;;5038709;28;20032;-44
2023/04/06 07:36:15;;;;;;;13.30;9.18;;;8.30;92.50;;;;;;5039714;28;20025;-44
2023/04/06 07:38:40;;;;;;;15.02;9.25;;;8.40;92.70;;;;;;5038213;28;20823;-43
2023/04/06 07:41:06;;;;;;;13.35;9.10;;;8.50;92.40;;;;;;5039808;28;20037;-44
2023/04/06 07:43:32;;;;;;;12.60;9.50;;;8.60;92.40;;;;;;5040805;28;20036;-43
2023/04/06 07:46:00;;;;;;;14.10;9.93;;;8.70;92.30;;;;;;5041677;28;20111;-43
2023/04/06 07:48:26;;;;;;;13.55;9.68;;;8.70;92.30;;;;;;5043068;28;20032;-44
2023/04/06 07:50:51;;;;;;;13.77;9.65;;;8.80;92.30;;;;;;5042495;28;20029;-44
2023/04/06 07:53:17;;;;;;;12.05;9.13;;;8.80;92.30;;;;;;5042321;28;20085;-42
2023/04/06 07:55:43;;;;;;;13.57;9.02;;;8.90;92.30;;;;;;5043368;28;20565;-42
2023/04/06 07:58:08;;;;;;;13.20;9.45;;;9.00;92.30;;;;;;5043099;28;20029;-43
2023/04/06 08:00:34;;;;;;;11.80;9.10;;;8.90;92.30;;;;;;5042452;28;20040;-43
2023/04/06 08:02:59;;;;;;;12.32;9.23;;;9.00;92.30;;;;;;5043684;28;20153;-43
2023/04/06 08:05:25;;;;;;;12.85;9.18;;;9.00;92.30;;;;;;5043472;28;20563;-43
2023/04/06 08:07:51;;;;;;;12.27;9.25;;;9.00;92.20;;;;;;5042953;28;20021;-44
2023/04/06 08:10:16;;;;;;;12.07;8.95;;;9.00;92.20;;;;;;5042536;28;20132;-43
2023/04/06 08:12:45;;;;;;;12.18;9.50;;;9.00;92.30;;;;;;5042949;28;20021;-44
2023/04/06 08:15:10;;;;;;;12.43;8.98;;;9.00;92.20;;;;;;5041753;28;20037;-42
2023/04/06 08:17:36;;;;;;;12.57;9.90;;;9.00;92.20;;;;;;5043285;28;20021;-42
2023/04/06 08:20:03;;;;;;;13.43;10.00;;;9.00;92.20;;;;;;5042536;28;20025;-43
2023/04/06 08:22:28;;;;;;;15.68;9.07;;;9.10;92.30;;;;;;5022791;28;20099;-43
2023/04/06 08:24:54;;;;;;;13.50;9.35;;;9.10;92.30;;;;;;5037087;28;20025;-42
2023/04/06 08:27:26;;;;;;;10.32;7.90;;;9.20;92.30;;;;;;5043127;28;20059;-43
2023/04/06 08:29:51;;;;;;;12.13;8.50;;;9.30;92.20;;;;;;5041746;28;20094;-43
2023/04/06 08:32:17;;;;;;;11.60;9.20;;;9.40;92.20;;;;;;5042633;28;20107;-43
2023/04/06 08:34:42;;;;;;;12.48;9.10;;;9.50;92.20;;;;;;5041572;28;20036;-43
2023/04/06 08:37:08;;;;;;;13.27;9.02;;;9.60;92.20;;;;;;5041310;28;20066;-43
2023/04/06 08:39:33;;;;;;;12.05;8.07;;;9.70;92.10;;;;;;5042279;28;20942;-43
2023/04/06 08:42:16;;;;;;;12.63;9.15;;;9.70;92.00;;;;;;5041754;28;20817;-44
2023/04/06 08:44:45;;;;;;;11.98;8.30;;;9.80;91.90;;;;;;5042558;28;20021;-43
2023/04/06 08:47:14;;;;;;;14.68;8.73;;;9.80;91.90;;;;;;5041691;28;20132;-43
2023/04/06 08:49:42;;;;;;;10.43;7.95;;;9.90;91.90;;;;;;5043000;28;20090;-43
2023/04/06 08:52:08;;;;;;;11.80;8.38;;;9.90;91.80;;;;;;5042109;28;20090;-43
2023/04/06 08:54:37;;;;;;;11.60;7.65;;;10.00;91.80;;;;;;5041561;28;20040;-43
2023/04/06 08:57:04;;;;;;;11.82;8.93;;;10.10;91.80;;;;;;5041246;28;20508;-43
2023/04/06 08:59:30;;;;;;;11.77;8.73;;;10.30;91.80;;;;;;5041953;28;20037;-43
2023/04/06 09:01:56;;;;;;;13.85;8.48;;;10.40;91.60;;;;;;5043158;28;20056;-43
2023/04/06 09:04:22;;;;;;;12.68;9.10;;;10.50;91.60;;;;;;5042226;28;20786;-44
2023/04/06 09:06:47;;;;;;;12.20;8.70;;;10.60;91.60;;;;;;5041753;28;20024;-44
2023/04/06 09:09:13;;;;;;;11.50;8.80;;;10.70;91.50;;;;;;5042818;28;20040;-44
2023/04/06 09:12:03;;;;;;;12.60;9.25;;;10.80;91.50;;;;;;5040716;28;20025;-44
2023/04/06 09:14:36;;;;;;;14.73;9.15;;;10.90;91.50;;;;;;5021922;28;20041;-44
2023/04/06 09:17:02;;;;;;;13.13;9.65;;;10.90;91.40;;;;;;5038001;28;20036;-44
2023/04/06 09:19:27;;;;;;;16.00;9.38;;;11.00;91.20;;;;;;5042272;28;20032;-43
2023/04/06 09:22:07;;;;;;;11.88;9.02;;;11.10;91.20;;;;;;5041894;28;20112;-44
2023/04/06 09:24:49;;;;;;;12.90;10.18;;;11.10;91.20;;;;;;5021442;28;20029;-44
2023/04/06 09:27:15;;;;;;;14.02;9.63;;;11.20;91.10;;;;;;5037915;28;20037;-44
2023/04/06 09:29:42;;;;;;;13.65;10.07;;;11.30;91.00;;;;;;5041664;28;20025;-44
2023/04/06 09:32:10;;;;;;;12.65;9.73;;;11.30;90.90;;;;;;5040892;28;20063;-44
2023/04/06 09:34:38;;;;;;;13.38;10.07;;;11.40;90.90;;;;;;5041663;28;20037;-44
2023/04/06 09:37:17;;;;;;;13.15;10.10;;;11.40;90.90;;;;;;5041782;28;20028;-44
2023/04/06 09:39:43;;;;;;;13.68;10.30;;;11.50;90.90;;;;;;5041230;28;20069;-44
2023/04/06 09:42:09;;;;;;;13.75;10.45;;;11.60;90.90;;;;;;5041578;28;20025;-44
2023/04/06 09:44:40;;;;;;;16.20;11.88;;;11.70;90.80;;;;;;5042500;28;20120;-44
2023/04/06 09:47:09;;;;;;;14.40;11.15;;;11.80;90.70;;;;;;5039809;28;20234;-44
2023/04/06 09:49:35;;;;;;;14.88;10.73;;;11.80;90.70;;;;;;5040239;28;20025;-44
2023/04/06 09:52:04;;;;;;;15.35;10.43;;;11.90;91.00;;;;;;5040738;28;20029;-42
2023/04/06 09:54:31;;;;;;;14.20;11.00;;;11.90;90.70;;;;;;5042347;28;20045;-42
2023/04/06 09:57:20;;;;;;;16.52;10.15;;;12.00;90.70;;;;;;5041843;28;20044;-43
2023/04/06 10:00:11;;;;;;;16.40;10.90;;;12.10;90.80;;;;;;5031693;28;20094;-43
2023/04/06 10:02:49;;;;;;;15.15;11.27;;;12.10;90.60;;;;;;5040906;28;20024;-43
2023/04/06 10:05:37;;;;;;;15.57;11.07;;;12.20;90.60;;;;;;5039778;28;20504;-44
2023/04/06 10:08:08;;;;;;;14.63;10.35;;;12.20;90.50;;;;;;5040512;28;20029;-44
2023/04/06 10:10:34;;;;;;;14.85;9.90;;;12.30;90.60;;;;;;5041029;28;20029;-43
2023/04/06 10:13:00;;;;;;;15.55;11.32;;;12.30;90.60;;;;;;5041043;28;20473;-44
2023/04/06 10:15:28;;;;;;;15.25;10.80;;;12.30;90.60;;;;;;5039815;28;20048;-43
2023/04/06 10:17:54;;;;;;;14.73;10.38;;;12.40;90.60;;;;;;5040142;28;20074;-44
2023/04/06 10:20:38;;;;;;;14.25;10.52;;;12.30;90.60;;;;;;5040293;28;20032;-43
2023/04/06 10:23:22;;;;;;;16.15;10.82;;;12.30;90.70;;;;;;5040188;28;20594;-43
2023/04/06 10:25:59;;;;;;;16.30;10.75;;;12.30;90.60;;;;;;5048743;28;20501;-43
2023/04/06 10:28:29;;;;;;;14.50;10.52;;;12.20;90.50;;;;;;5050819;28;20025;-44
2023/04/06 10:30:59;;;;;;;19.58;12.02;;;12.30;90.60;;;;;;5041038;28;20029;-43
2023/04/06 10:33:25;;;;;;;14.50;10.05;;;12.20;90.80;;;;;;5040050;28;20683;-43
2023/04/06 10:35:51;;;;;;;14.23;10.73;;;12.20;90.50;;;;;;5040400;28;20132;-43
2023/04/06 10:38:21;;;;;;;18.95;9.40;;;12.20;90.90;;;;;;5041266;28;20013;-43
2023/04/06 10:40:47;;;;;;;11.77;9.30;;;12.20;90.70;;;;;;5039490;28;20730;-41
2023/04/06 10:43:21;;;;;;;14.57;10.07;;;12.20;90.70;;;;;;5039556;28;20048;-43
2023/04/06 10:45:59;;;;;;;12.30;8.95;;;12.30;90.70;;;;;;5039825;28;20025;-43
2023/04/06 10:48:35;;;;;;;14.75;9.30;;;12.30;90.70;;;;;;5039760;28;20052;-43
2023/04/06 10:51:01;;;;;;;15.85;9.75;;;12.40;90.70;;;;;;5039972;28;20080;-43
2023/04/06 10:53:27;;;;;;;13.75;9.95;;;12.50;90.70;;;;;;5039059;28;20717;-43
2023/04/06 10:56:12;;;;;;;14.48;10.73;;;12.60;90.70;;;;;;5039072;28;20060;-43
2023/04/06 10:58:37;;;;;;;13.27;9.50;;;12.70;90.60;;;;;;5040273;28;20025;-43
2023/04/06 11:01:06;;;;;;;14.25;10.90;;;12.80;90.50;;;;;;5039899;28;20025;-43
2023/04/06 11:03:34;;;;;;;13.98;9.95;;;12.80;90.50;;;;;;5039784;28;20013;-43
2023/04/06 11:06:00;;;;;;;12.60;9.30;;;12.80;90.70;;;;;;5040190;28;20048;-43
2023/04/06 11:08:30;;;;;;;12.07;9.70;;;12.80;90.70;;;;;;5039799;28;20532;-43
2023/04/06 11:11:08;;;;;;;13.95;10.52;;;12.80;90.80;;;;;;5039136;28;20441;-43
2023/04/06 11:13:38;;;;;;;15.63;10.40;;;12.90;90.80;;;;;;5040122;28;20041;-43
2023/04/06 11:16:04;;;;;;;10.77;8.93;;;12.80;90.90;;;;;;5040171;28;20256;-43
2023/04/06 11:18:31;;;;;;;12.73;10.23;;;12.80;91.00;;;;;;5038506;28;20455;-42
2023/04/06 11:20:56;;;;;;;16.13;10.30;;;12.80;91.10;;;;;;5039759;28;20025;-43
2023/04/06 11:23:27;;;;;;;14.82;10.68;;;12.80;91.10;;;;;;5040394;28;20043;-43
2023/04/06 11:25:54;;;;;;;14.52;10.40;;;12.80;91.20;;;;;;5039893;28;20025;-43
2023/04/06 11:28:20;;;;;;;10.38;9.15;;;12.80;91.50;;;;;;5040213;28;20108;-43
2023/04/06 11:30:46;;;;;;;10.52;8.00;;;12.80;91.60;;;;;;5038558;28;20513;-44
2023/04/06 11:33:21;;;;;;;11.98;8.43;;;12.80;91.90;;;;;;5039491;28;20033;-44
2023/04/06 11:35:46;;;;;;;9.43;8.10;;;12.80;92.10;;;;;;5039928;28;20025;-44
2023/04/06 11:38:12;;;;;;;10.95;8.02;;;12.70;92.60;;;;;;5039630;28;20071;-44
2023/04/06 11:40:38;;;;;;;8.48;7.60;;;12.70;93.10;;;;;;5039284;28;20123;-44
2023/04/06 11:43:04;;;;;;;8.65;6.90;;;12.60;93.50;;;;;;5039850;28;20125;-44
2023/04/06 11:45:41;;;;;;;10.60;7.88;;;12.50;93.90;;;;;;5038260;28;20137;-44
2023/04/06 11:48:19;;;;;;;8.82;7.35;;;12.40;94.60;;;;;;5029090;28;20048;-43
2023/04/06 11:50:47;;;;;;;9.82;8.05;;;12.30;95.00;;;;;;5039532;28;20115;-44
2023/04/06 11:53:12;;;;;;;10.95;8.57;;;12.20;95.70;;;;;;5028230;28;20021;-44
2023/04/06 11:55:38;;;;;;;10.02;8.25;;;12.10;96.60;;;;;;5039278;28;20067;-44
2023/04/06 11:58:04;;;;;;;10.48;7.82;;;11.90;96.90;;;;;;5039258;28;20508;-43
2023/04/06 12:00:34;;;;;;;8.68;7.10;;;11.80;97.70;;;;;;5038700;28;20158;-43
2023/04/06 12:03:00;;;;;;;9.63;7.53;;;11.70;97.40;;;;;;5038671;28;20529;-43
2023/04/06 12:05:26;;;;;;;10.07;7.47;;;11.70;97.80;;;;;;5039417;28;20028;-43
2023/04/06 12:07:51;;;;;;;8.45;6.13;;;11.60;97.90;;;;;;5038993;28;20459;-43
2023/04/06 12:10:17;;;;;;;6.82;5.60;;;11.60;98.00;;;;;;5039286;28;20132;-43
2023/04/06 12:15:43;;;;;;;8.88;5.95;;;11.60;98.20;;;;;;5019200;28;20044;-43
2023/04/06 12:18:09;;;;;;;9.00;6.60;;;11.50;98.50;;;;;;5037478;28;20037;-43
2023/04/06 12:20:37;;;;;;;8.13;6.78;;;11.50;99.20;;;;;;5038571;28;20032;-43
2023/04/06 12:23:02;;;;;;;9.52;6.57;;;11.40;99.20;;;;;;5039155;28;20036;-43
2023/04/06 12:25:28;;;;;;;11.00;7.80;;;11.30;99.60;;;;;;5039470;28;20032;-44
2023/04/06 12:27:54;;;;;;;10.00;6.82;;;11.20;99.90;;;;;;5038677;28;20031;-43
2023/04/06 12:30:22;;;;;;;8.57;6.70;;;11.10;99.90;;;;;;5041365;28;20036;-43
2023/04/06 12:32:48;;;;;;;8.80;6.72;;;10.90;99.90;;;;;;5041190;28;20033;-43
2023/04/06 12:35:15;;;;;;;8.25;6.07;;;10.80;99.90;;;;;;5042142;28;20039;-43
2023/04/06 12:37:44;;;;;;;7.30;5.10;;;10.70;99.90;;;;;;5042456;28;20025;-43
2023/04/06 12:40:11;;;;;;;7.25;6.38;;;10.70;99.90;;;;;;5042919;28;20033;-46
2023/04/06 12:42:38;;;;;;;7.20;5.40;;;10.60;99.90;;;;;;5041913;28;20611;-43
2023/04/06 12:45:05;;;;;;;7.20;5.70;;;10.60;99.90;;;;;;5043243;28;20025;-44
2023/04/06 12:47:30;;;;;;;6.60;4.70;;;10.60;99.90;;;;;;5042016;28;20169;-43
2023/04/06 12:49:56;;;;;;;5.47;4.80;;;10.60;99.90;;;;;;5041932;28;20046;-43